createdAt,value
2018-12-21T00:00:40.514Z,90.74
2018-12-21T00:03:11.450Z,88.28
2018-12-21T00:05:42.582Z,86.19
2018-12-21T00:08:13.744Z,88.03
2018-12-21T00:10:44.443Z,89.90
2018-12-21T00:13:15.390Z,88.08
2018-12-21T00:15:47.161Z,88.13
2018-12-21T00:18:18.502Z,86.85
2018-12-21T00:20:49.796Z,86.42
2018-12-21T00:23:20.833Z,85.67
2018-12-21T00:25:51.774Z,85.92
2018-12-21T00:28:22.855Z,86.23
2018-12-21T00:30:58.895Z,86.54
2018-12-21T00:33:34.833Z,85.63
2018-12-21T00:36:10.729Z,85.75
2018-12-21T00:38:46.973Z,84.67
2018-12-21T00:41:17.774Z,85.33
2018-12-21T00:44:11.449Z,86.89
2018-12-21T00:46:46.566Z,88.06
2018-12-21T00:49:19.051Z,89.95
2018-12-21T00:51:49.869Z,91.13
2018-12-21T00:54:20.732Z,90.72
2018-12-21T00:56:51.243Z,89.53
2018-12-21T00:59:21.956Z,89.24
2018-12-21T01:01:53.495Z,88.73
2018-12-21T01:04:24.407Z,89.46
2018-12-21T01:06:55.213Z,88.95
2018-12-21T01:09:26.747Z,87.17
2018-12-21T01:11:58.355Z,88.12
2018-12-21T01:14:29.249Z,88.13
2018-12-21T01:17:00.737Z,89.39
2018-12-21T01:19:37.441Z,88.06
2018-12-21T01:22:10.548Z,87.66
2018-12-21T01:24:43.979Z,86.43
2018-12-21T01:27:17.295Z,85.50
2018-12-21T01:29:48.114Z,88.98
2018-12-21T01:32:19.971Z,90.14
2018-12-21T01:34:52.522Z,88.67
2018-12-21T01:37:28.303Z,88.14
2018-12-21T01:40:01.183Z,87.82
2018-12-21T01:42:36.698Z,86.71
2018-12-21T01:45:14.379Z,86.72
2018-12-21T01:47:50.026Z,85.53
2018-12-21T01:50:23.572Z,87.66
2018-12-21T01:52:54.122Z,85.98
2018-12-21T01:55:25.090Z,85.15
2018-12-21T01:57:56.184Z,85.15
2018-12-21T02:00:29.137Z,87.14
2018-12-21T02:02:59.907Z,90.10
2018-12-21T02:05:39.158Z,92.01
2018-12-21T02:08:13.841Z,90.39
2018-12-21T02:10:45.199Z,90.19
2018-12-21T02:13:18.406Z,89.19
2018-12-21T02:15:49.226Z,91.00
2018-12-21T02:18:23.659Z,92.07
2018-12-21T02:20:56.839Z,91.87
2018-12-21T02:23:29.541Z,89.57
2018-12-21T02:26:00.802Z,88.16
2018-12-21T02:28:33.270Z,87.03
2018-12-21T02:31:04.560Z,85.04
2018-12-21T02:33:35.378Z,85.40
2018-12-21T02:36:05.908Z,84.10
2018-12-21T02:38:36.475Z,86.03
2018-12-21T02:41:07.149Z,86.31
2018-12-21T02:43:37.963Z,87.90
2018-12-21T02:46:08.527Z,86.31
2018-12-21T02:48:39.280Z,84.85
2018-12-21T02:51:09.895Z,85.63
2018-12-21T02:53:46.043Z,85.77
2018-12-21T02:56:19.822Z,86.00
2018-12-21T02:58:53.518Z,89.13
2018-12-21T03:01:24.750Z,88.93
2018-12-21T03:03:57.962Z,87.96
2018-12-21T03:06:29.349Z,87.95
2018-12-21T03:08:59.947Z,87.74
2018-12-21T03:11:35.472Z,88.99
2018-12-21T03:14:07.691Z,88.30
2018-12-21T03:16:43.267Z,88.75
2018-12-21T03:19:17.782Z,88.92
2018-12-21T03:21:48.491Z,87.61
2018-12-21T03:24:19.160Z,85.41
2018-12-21T03:26:55.560Z,84.24
2018-12-21T03:29:28.942Z,86.85
2018-12-21T03:32:00.294Z,86.89
2018-12-21T03:34:31.256Z,86.16
2018-12-21T03:37:09.517Z,86.96
2018-12-21T03:39:42.783Z,88.34
2018-12-21T03:42:17.459Z,87.62
2018-12-21T03:44:52.883Z,85.40
2018-12-21T03:47:23.844Z,83.49
2018-12-21T03:49:54.572Z,85.09
2018-12-21T03:52:28.618Z,82.66
2018-12-21T03:54:59.918Z,82.47
2018-12-21T03:57:31.838Z,81.45
2018-12-21T04:00:11.570Z,81.75
2018-12-21T04:02:42.535Z,84.50
2018-12-21T04:05:13.058Z,85.80
2018-12-21T04:07:43.610Z,86.69
2018-12-21T04:10:14.593Z,86.25
2018-12-21T04:12:45.487Z,87.60
2018-12-21T04:15:16.109Z,87.88
2018-12-21T04:17:47.445Z,86.21
2018-12-21T04:20:19.677Z,84.79
2018-12-21T04:22:50.993Z,84.41
2018-12-21T04:25:21.954Z,84.60
2018-12-21T04:27:55.959Z,82.98
2018-12-21T04:30:27.023Z,82.05
2018-12-21T04:33:00.618Z,83.15
2018-12-21T04:35:34.054Z,83.16
2018-12-21T04:38:06.887Z,82.28
2018-12-21T04:40:38.491Z,83.19
2018-12-21T04:43:09.362Z,82.62
2018-12-21T04:45:41.902Z,81.55
2018-12-21T04:48:16.581Z,81.14
2018-12-21T04:50:49.844Z,80.66
2018-12-21T04:53:23.178Z,81.23
2018-12-21T04:55:54.995Z,80.86
2018-12-21T04:58:27.758Z,81.20
2018-12-21T05:00:58.398Z,82.13
2018-12-21T05:03:28.932Z,80.62
2018-12-21T05:06:00.119Z,79.36
2018-12-21T05:08:34.006Z,80.41
2018-12-21T05:11:12.943Z,79.40
2018-12-21T05:13:46.115Z,78.46
2018-12-21T05:16:17.406Z,76.70
2018-12-21T05:18:48.191Z,78.50
2018-12-21T05:21:18.939Z,79.97
2018-12-21T05:23:49.638Z,81.70
2018-12-21T05:26:20.675Z,79.89
2018-12-21T05:28:51.805Z,81.55
2018-12-21T05:31:28.278Z,81.30
2018-12-21T05:33:56.188Z,82.21
2018-12-21T05:36:26.969Z,84.12
2018-12-21T05:39:00.634Z,83.75
2018-12-21T05:41:31.614Z,83.56
2018-12-21T05:44:06.309Z,82.89
2018-12-21T05:46:41.322Z,80.81
2018-12-21T05:49:12.079Z,80.88
2018-12-21T05:51:43.141Z,83.20
2018-12-21T05:54:19.168Z,84.94
2018-12-21T05:56:53.994Z,85.06
2018-12-21T05:59:26.270Z,84.18
2018-12-21T06:01:58.904Z,85.91
2018-12-21T06:04:31.119Z,87.06
2018-12-21T06:07:08.018Z,86.76
2018-12-21T06:09:45.280Z,86.73
2018-12-21T06:12:18.085Z,86.58
2018-12-21T06:14:49.481Z,87.42
2018-12-21T06:17:22.510Z,87.42
2018-12-21T06:19:54.920Z,91.05
2018-12-21T06:22:29.460Z,91.68
2018-12-21T06:25:00.489Z,90.46
2018-12-21T06:27:35.406Z,89.16
2018-12-21T06:30:17.486Z,89.78
2018-12-21T06:32:55.655Z,90.25
2018-12-21T06:35:29.708Z,90.41
2018-12-21T06:38:01.049Z,89.16
2018-12-21T06:40:32.587Z,89.90
2018-12-21T06:43:04.569Z,90.25
2018-12-21T06:45:39.274Z,90.50
2018-12-21T06:48:13.448Z,89.76
2018-12-21T06:50:44.782Z,90.12
2018-12-21T06:53:18.012Z,90.55
2018-12-21T06:55:53.747Z,91.85
2018-12-21T06:58:24.771Z,90.64
2018-12-21T07:00:55.938Z,89.80
2018-12-21T07:03:26.863Z,90.07
2018-12-21T07:05:59.835Z,90.57
2018-12-21T07:08:30.800Z,89.58
2018-12-21T07:11:05.097Z,89.22
2018-12-21T07:13:38.980Z,89.93
2018-12-21T07:16:12.265Z,88.88
2018-12-21T07:18:51.595Z,88.16
2018-12-21T07:21:22.842Z,88.60
2018-12-21T07:23:53.883Z,88.74
2018-12-21T07:26:26.562Z,87.95
2018-12-21T07:28:58.170Z,89.69
2018-12-21T07:31:31.739Z,90.85
2018-12-21T07:34:05.066Z,91.62
2018-12-21T07:36:36.814Z,89.39
2018-12-21T07:39:13.177Z,89.03
2018-12-21T07:41:44.576Z,87.05
2018-12-21T07:44:18.218Z,88.65
2018-12-21T07:46:50.599Z,87.75
2018-12-21T07:49:26.270Z,86.85
2018-12-21T07:52:07.553Z,87.60
2018-12-21T07:54:40.762Z,87.00
2018-12-21T07:57:12.974Z,86.68
2018-12-21T07:59:45.672Z,85.69
2018-12-21T08:02:19.279Z,86.18
2018-12-21T08:04:49.806Z,85.69
2018-12-21T08:07:20.473Z,85.55
2018-12-21T08:09:51.118Z,84.41
2018-12-21T08:12:22.004Z,83.96
2018-12-21T08:14:52.613Z,84.75
2018-12-21T08:17:24.600Z,84.64
2018-12-21T08:19:56.985Z,86.52
2018-12-21T08:22:29.900Z,86.44
2018-12-21T08:25:01.147Z,87.55
2018-12-21T08:27:32.855Z,87.56
2018-12-21T08:30:10.730Z,86.31
2018-12-21T08:32:42.256Z,86.21
2018-12-21T08:35:12.776Z,86.21
2018-12-21T08:37:43.740Z,86.51
2018-12-21T08:40:15.228Z,87.06
2018-12-21T08:42:46.387Z,86.40
2018-12-21T08:45:19.635Z,85.94
2018-12-21T08:47:53.409Z,85.52
2018-12-21T08:50:24.245Z,85.17
2018-12-21T08:52:57.070Z,84.75
2018-12-21T08:55:27.964Z,84.44
2018-12-21T08:58:04.770Z,83.78
2018-12-21T09:00:38.022Z,86.11
2018-12-21T09:03:09.657Z,85.89
2018-12-21T09:05:51.050Z,85.29
2018-12-21T09:08:22.217Z,86.50
2018-12-21T09:10:58.914Z,87.51
2018-12-21T09:13:33.882Z,85.83
2018-12-21T09:16:07.257Z,83.70
2018-12-21T09:18:39.427Z,82.22
2018-12-21T09:21:14.290Z,80.60
2018-12-21T09:23:46.805Z,81.04
2018-12-21T09:26:20.079Z,81.54
2018-12-21T09:28:51.645Z,80.10
2018-12-21T09:31:24.358Z,79.79
2018-12-21T09:33:57.473Z,78.69
2018-12-21T09:36:30.325Z,79.26
2018-12-21T09:39:00.941Z,80.47
2018-12-21T09:41:37.280Z,81.82
2018-12-21T09:44:08.330Z,82.97
2018-12-21T09:46:42.324Z,81.85
2018-12-21T09:49:16.450Z,82.54
2018-12-21T09:51:52.225Z,84.19
2018-12-21T09:54:23.491Z,83.00
2018-12-21T09:56:55.069Z,83.15
2018-12-21T09:59:28.114Z,83.55
2018-12-21T10:02:07.250Z,82.94
2018-12-21T10:04:37.951Z,81.73
2018-12-21T10:07:08.858Z,82.16
2018-12-21T10:09:45.341Z,83.50
2018-12-21T10:12:18.574Z,83.51
2018-12-21T10:14:52.333Z,83.33
2018-12-21T10:17:25.524Z,84.80
2018-12-21T10:19:56.113Z,84.57
2018-12-21T10:22:26.925Z,85.56
2018-12-21T10:24:57.612Z,84.85
2018-12-21T10:27:37.260Z,84.96
2018-12-21T10:30:13.590Z,85.91
2018-12-21T10:32:44.325Z,83.77
2018-12-21T10:35:15.290Z,83.69
2018-12-21T10:37:46.014Z,84.95
2018-12-21T10:40:19.410Z,85.07
2018-12-21T10:42:52.478Z,86.31
2018-12-21T10:45:23.866Z,86.33
2018-12-21T10:47:56.886Z,85.75
2018-12-21T10:50:28.138Z,86.45
2018-12-21T10:53:01.839Z,86.50
2018-12-21T10:55:35.355Z,86.13
2018-12-21T10:58:05.899Z,87.09
2018-12-21T11:00:36.840Z,87.15
2018-12-21T11:03:07.361Z,86.07
2018-12-21T11:05:38.122Z,86.88
2018-12-21T11:08:08.941Z,85.51
2018-12-21T11:10:42.663Z,84.92
2018-12-21T11:13:16.656Z,86.99
2018-12-21T11:15:48.855Z,87.00
2018-12-21T11:18:19.492Z,86.24
2018-12-21T11:20:52.814Z,85.82
2018-12-21T11:23:24.987Z,84.75
2018-12-21T11:25:57.463Z,85.77
2018-12-21T11:28:28.166Z,85.84
2018-12-21T11:31:08.428Z,85.89
2018-12-21T11:33:40.821Z,86.63
2018-12-21T11:36:12.450Z,86.38
2018-12-21T11:38:44.757Z,85.99
2018-12-21T11:41:15.835Z,86.04
2018-12-21T11:43:46.469Z,85.86
2018-12-21T11:46:17.081Z,85.92
2018-12-21T11:48:48.181Z,85.22
2018-12-21T11:51:21.105Z,84.54
2018-12-21T11:53:53.842Z,83.94
2018-12-21T11:56:30.657Z,84.47
2018-12-21T11:59:01.298Z,84.35
2018-12-21T12:01:35.730Z,83.84
2018-12-21T12:04:06.988Z,83.77
2018-12-21T12:06:37.814Z,83.31
2018-12-21T12:09:08.812Z,83.31
2018-12-21T12:11:39.831Z,84.83
2018-12-21T12:14:13.963Z,84.14
2018-12-21T12:16:48.322Z,85.02
2018-12-21T12:19:20.020Z,84.77
2018-12-21T12:21:51.788Z,83.88
2018-12-21T12:24:27.412Z,83.01
2018-12-21T12:26:58.371Z,81.78
2018-12-21T12:29:29.462Z,82.63
2018-12-21T12:32:01.024Z,82.90
2018-12-21T12:34:32.342Z,82.73
2018-12-21T12:37:04.270Z,82.15
2018-12-21T12:39:37.173Z,82.86
2018-12-21T12:42:11.623Z,82.43
2018-12-21T12:44:44.127Z,81.65
2018-12-21T12:47:17.256Z,82.15
2018-12-21T12:49:48.774Z,82.30
2018-12-21T12:52:19.446Z,83.41
2018-12-21T12:54:50.290Z,84.11
2018-12-21T12:57:22.949Z,85.10
2018-12-21T12:59:55.349Z,85.52
2018-12-21T13:02:28.168Z,85.10
2018-12-21T13:05:01.444Z,84.85
2018-12-21T13:07:33.385Z,84.45
2018-12-21T13:10:11.566Z,83.09
2018-12-21T13:12:43.202Z,82.55
2018-12-21T13:15:16.191Z,83.78
2018-12-21T13:17:47.482Z,83.28
2018-12-21T13:20:19.775Z,83.85
2018-12-21T13:22:58.410Z,84.59
2018-12-21T13:25:29.136Z,84.30
2018-12-21T13:27:59.914Z,83.30
2018-12-21T13:30:30.474Z,83.18
2018-12-21T13:33:01.270Z,83.35
2018-12-21T13:35:35.112Z,84.19
2018-12-21T13:38:09.454Z,85.03
2018-12-21T13:40:42.347Z,85.21
2018-12-21T13:43:16.141Z,84.22
2018-12-21T13:45:48.271Z,82.88
2018-12-21T13:48:19.221Z,83.39
2018-12-21T13:50:49.750Z,82.40
2018-12-21T13:53:20.282Z,81.12
2018-12-21T13:55:51.102Z,80.31
2018-12-21T13:58:21.718Z,80.32
2018-12-21T14:00:52.260Z,79.84
2018-12-21T14:03:23.290Z,80.09
2018-12-21T14:05:53.822Z,80.63
2018-12-21T14:08:25.308Z,81.25
2018-12-21T14:10:58.377Z,81.01
2018-12-21T14:13:32.310Z,80.07
2018-12-21T14:16:05.106Z,80.91
2018-12-21T14:18:37.841Z,79.16
2018-12-21T14:21:10.443Z,78.35
2018-12-21T14:23:42.655Z,77.82
2018-12-21T14:26:13.740Z,77.87
2018-12-21T14:28:45.295Z,80.85
2018-12-21T14:31:16.330Z,81.98
2018-12-21T14:33:47.796Z,80.36
2018-12-21T14:36:21.563Z,79.53
2018-12-21T14:38:56.607Z,79.32
2018-12-21T14:41:28.329Z,80.65
2018-12-21T14:44:01.622Z,79.79
2018-12-21T14:46:34.912Z,77.84
2018-12-21T14:49:05.629Z,79.05
2018-12-21T14:51:37.640Z,77.14
2018-12-21T14:54:10.450Z,77.50
2018-12-21T14:56:43.794Z,78.80
2018-12-21T14:59:16.746Z,77.10
2018-12-21T15:01:49.074Z,77.96
2018-12-21T15:04:24.247Z,75.79
2018-12-21T15:06:54.762Z,74.51
2018-12-21T15:09:26.253Z,74.40
2018-12-21T15:11:59.815Z,75.75
2018-12-21T15:14:31.014Z,75.80
2018-12-21T15:17:02.125Z,75.65
2018-12-21T15:19:34.964Z,77.00
2018-12-21T15:22:07.798Z,81.01
2018-12-21T15:24:40.502Z,81.48
2018-12-21T15:27:13.945Z,83.82
2018-12-21T15:29:44.761Z,82.65
2018-12-21T15:32:17.574Z,81.05
2018-12-21T15:34:48.407Z,77.82
2018-12-21T15:37:18.939Z,77.99
2018-12-21T15:39:52.476Z,77.04
2018-12-21T15:42:26.764Z,77.89
2018-12-21T15:45:00.169Z,79.04
2018-12-21T15:47:40.135Z,77.04
2018-12-21T15:50:16.932Z,78.43
2018-12-21T15:52:50.115Z,77.93
2018-12-21T15:55:28.224Z,78.95
2018-12-21T15:58:00.314Z,79.29
2018-12-21T16:00:33.981Z,79.25
2018-12-21T16:03:06.053Z,77.59
2018-12-21T16:05:38.225Z,74.91
2018-12-21T16:08:11.386Z,77.00
2018-12-21T16:10:42.517Z,78.34
2018-12-21T16:13:15.767Z,76.87
2018-12-21T16:15:50.010Z,76.55
2018-12-21T16:18:23.012Z,76.60
2018-12-21T16:20:54.083Z,74.46
2018-12-21T16:23:24.903Z,77.53
2018-12-21T16:26:03.530Z,76.20
2018-12-21T16:28:32.222Z,75.71
2018-12-21T16:31:05.757Z,75.31
2018-12-21T16:33:38.967Z,73.95
2018-12-21T16:36:09.933Z,75.90
2018-12-21T16:38:42.326Z,79.52
2018-12-21T16:41:16.146Z,77.83
2018-12-21T16:43:50.748Z,77.63
2018-12-21T16:46:22.639Z,76.29
2018-12-21T16:48:53.341Z,74.47
2018-12-21T16:51:23.974Z,78.10
2018-12-21T16:53:54.758Z,79.83
2018-12-21T16:56:25.268Z,77.59
2018-12-21T16:58:55.926Z,78.44
2018-12-21T17:01:26.510Z,78.20
2018-12-21T17:03:57.271Z,78.14
2018-12-21T17:06:30.441Z,79.13
2018-12-21T17:09:01.197Z,83.44
2018-12-21T17:11:34.254Z,85.69
2018-12-21T17:14:07.060Z,84.98
2018-12-21T17:16:43.336Z,82.95
2018-12-21T17:19:18.575Z,80.73
2018-12-21T17:21:53.220Z,80.18
2018-12-21T17:24:26.550Z,77.60
2018-12-21T17:27:00.188Z,75.72
2018-12-21T17:29:32.346Z,76.49
2018-12-21T17:32:03.590Z,76.73
2018-12-21T17:34:34.528Z,78.46
2018-12-21T17:37:05.102Z,79.82
2018-12-21T17:39:35.700Z,80.34
2018-12-21T17:42:06.435Z,78.46
2018-12-21T17:44:36.955Z,79.46
2018-12-21T17:47:07.644Z,80.10
2018-12-21T17:49:38.808Z,79.77
2018-12-21T17:52:09.776Z,77.99
2018-12-21T17:54:40.725Z,76.50
2018-12-21T17:57:13.946Z,75.23
2018-12-21T17:59:50.555Z,76.08
2018-12-21T18:02:23.890Z,79.19
2018-12-21T18:05:00.527Z,78.72
2018-12-21T18:07:31.224Z,81.25
2018-12-21T18:10:02.126Z,78.70
2018-12-21T18:12:42.417Z,77.88
2018-12-21T18:15:14.030Z,79.32
2018-12-21T18:17:45.223Z,78.40
2018-12-21T18:20:15.529Z,80.91
2018-12-21T18:22:46.367Z,81.09
2018-12-21T18:25:20.870Z,82.38
2018-12-21T18:27:55.006Z,79.69
2018-12-21T18:30:37.260Z,78.95
2018-12-21T18:33:11.700Z,78.51
2018-12-21T18:35:43.472Z,77.69
2018-12-21T18:38:18.253Z,80.18
2018-12-21T18:40:50.533Z,80.10
2018-12-21T18:43:21.884Z,81.04
2018-12-21T18:45:52.711Z,82.06
2018-12-21T18:48:23.489Z,81.17
2018-12-21T18:50:54.046Z,81.71
2018-12-21T18:53:24.859Z,81.01
2018-12-21T18:55:58.217Z,82.26
2018-12-21T18:58:31.615Z,81.00
2018-12-21T19:01:02.135Z,82.05
2018-12-21T19:03:36.747Z,81.41
2018-12-21T19:06:08.329Z,81.73
2018-12-21T19:08:41.646Z,81.12
2018-12-21T19:11:14.531Z,81.84
2018-12-21T19:13:45.281Z,82.45
2018-12-21T19:16:16.518Z,82.55
2018-12-21T19:18:51.066Z,80.83
2018-12-21T19:21:24.940Z,78.77
2018-12-21T19:23:57.020Z,79.18
2018-12-21T19:26:28.199Z,79.44
2018-12-21T19:29:04.268Z,79.88
2018-12-21T19:31:35.050Z,78.70
2018-12-21T19:34:05.582Z,80.08
2018-12-21T19:36:38.630Z,80.77
2018-12-21T19:39:11.806Z,80.12
2018-12-21T19:41:43.918Z,79.29
2018-12-21T19:44:17.063Z,79.18
2018-12-21T19:46:50.835Z,79.09
2018-12-21T19:49:21.984Z,79.96
2018-12-21T19:51:54.825Z,81.22
2018-12-21T19:54:25.710Z,82.49
2018-12-21T19:57:14.044Z,82.84
2018-12-21T19:59:46.925Z,82.98
2018-12-21T20:02:20.136Z,81.84
2018-12-21T20:04:54.634Z,82.95
2018-12-21T20:07:26.881Z,85.61
2018-12-21T20:09:57.979Z,85.45
2018-12-21T20:12:28.978Z,86.48
2018-12-21T20:15:02.880Z,84.81
2018-12-21T20:17:39.887Z,82.45
2018-12-21T20:20:16.833Z,83.00
2018-12-21T20:22:49.807Z,81.73
2018-12-21T20:25:23.312Z,82.80
2018-12-21T20:27:56.204Z,81.14
2018-12-21T20:30:26.987Z,81.39
2018-12-21T20:32:58.554Z,81.79
2018-12-21T20:35:31.977Z,82.41
2018-12-21T20:38:05.532Z,80.79
2018-12-21T20:40:37.854Z,81.83
2018-12-21T20:43:11.874Z,81.64
2018-12-21T20:45:44.298Z,82.39
2018-12-21T20:48:17.287Z,82.94
2018-12-21T20:50:50.337Z,85.01
2018-12-21T20:53:20.947Z,84.13
2018-12-21T20:55:52.254Z,82.62
2018-12-21T20:58:34.095Z,81.73
2018-12-21T21:01:05.602Z,80.15
2018-12-21T21:03:39.514Z,79.03
2018-12-21T21:06:11.572Z,78.96
2018-12-21T21:08:43.367Z,79.99
2018-12-21T21:11:14.421Z,78.19
2018-12-21T21:13:46.502Z,78.04
2018-12-21T21:16:19.675Z,78.91
2018-12-21T21:18:52.380Z,80.91
2018-12-21T21:21:23.201Z,81.53
2018-12-21T21:23:54.742Z,82.58
2018-12-21T21:26:27.510Z,84.51
2018-12-21T21:28:58.187Z,85.16
2018-12-21T21:31:31.055Z,87.07
2018-12-21T21:34:01.973Z,86.92
2018-12-21T21:36:35.531Z,86.69
2018-12-21T21:39:08.311Z,84.96
2018-12-21T21:41:39.997Z,85.21
2018-12-21T21:44:11.348Z,84.72
2018-12-21T21:46:44.436Z,84.24
2018-12-21T21:49:16.030Z,83.85
2018-12-21T21:51:55.799Z,83.51
2018-12-21T21:54:29.442Z,82.40
2018-12-21T21:57:02.485Z,82.71
2018-12-21T21:59:35.353Z,80.10
2018-12-21T22:02:39.437Z,79.79
2018-12-21T22:05:11.502Z,82.53
2018-12-21T22:07:46.007Z,82.14
2018-12-21T22:10:17.462Z,82.04
2018-12-21T22:12:48.663Z,81.70
2018-12-21T22:15:19.600Z,82.55
2018-12-21T22:17:51.008Z,83.34
2018-12-21T22:20:25.093Z,83.46
2018-12-21T22:23:00.208Z,83.82
2018-12-21T22:25:31.538Z,84.62
2018-12-21T22:28:02.057Z,87.84
2018-12-21T22:30:35.535Z,88.78
2018-12-21T22:33:08.887Z,87.73
2018-12-21T22:35:39.765Z,87.83
2018-12-21T22:38:11.343Z,88.86
2018-12-21T22:40:43.417Z,87.71
2018-12-21T22:43:14.446Z,89.28
2018-12-21T22:45:47.453Z,88.95
2018-12-21T22:48:18.730Z,89.56
2018-12-21T22:50:51.025Z,88.32
2018-12-21T22:53:22.469Z,87.62
2018-12-21T22:55:53.556Z,85.37
2018-12-21T22:58:24.726Z,84.38
2018-12-21T23:00:57.758Z,83.27
2018-12-21T23:03:31.767Z,83.31
2018-12-21T23:06:02.384Z,81.27
2018-12-21T23:08:33.435Z,82.16
2018-12-21T23:11:04.298Z,84.57
2018-12-21T23:13:36.908Z,84.21
2018-12-21T23:16:08.755Z,84.97
2018-12-21T23:18:41.530Z,85.19
2018-12-21T23:21:13.242Z,85.27
2018-12-21T23:23:46.627Z,84.86
2018-12-21T23:26:17.757Z,82.36
2018-12-21T23:28:48.728Z,81.88
2018-12-21T23:31:21.919Z,80.75
2018-12-21T23:33:52.772Z,80.54
2018-12-21T23:36:26.054Z,81.78
2018-12-21T23:38:56.618Z,81.46
2018-12-21T23:41:29.417Z,82.83
2018-12-21T23:44:00.822Z,82.53
2018-12-21T23:46:35.198Z,82.77
2018-12-21T23:49:08.036Z,81.72
2018-12-21T23:51:39.279Z,82.14
2018-12-21T23:54:13.702Z,83.96
2018-12-21T23:56:44.278Z,86.61
2018-12-21T23:59:20.145Z,86.51
